sensor_id;sensor_type;location;lat;lon;timestamp;P1;durP1;ratioP1;P2;durP2;ratioP2
19651;SDS011;9974;52.146;14.668;2022-12-29T00:00:02;3.03;;;1.80;;
19651;SDS011;9974;52.146;14.668;2022-12-29T00:02:32;5.82;;;2.22;;
19651;SDS011;9974;52.146;14.668;2022-12-29T00:04:58;2.95;;;1.98;;
19651;SDS011;9974;52.146;14.668;2022-12-29T00:07:24;3.63;;;1.80;;
19651;SDS011;9974;52.146;14.668;2022-12-29T00:09:50;5.30;;;1.85;;
19651;SDS011;9974;52.146;14.668;2022-12-29T00:12:16;4.30;;;2.17;;
19651;SDS011;9974;52.146;14.668;2022-12-29T00:14:42;4.10;;;2.20;;
19651;SDS011;9974;52.146;14.668;2022-12-29T00:17:26;6.13;;;2.17;;
19651;SDS011;9974;52.146;14.668;2022-12-29T00:19:52;2.90;;;1.75;;
19651;SDS011;9974;52.146;14.668;2022-12-29T00:22:37;8.07;;;2.53;;
19651;SDS011;9974;52.146;14.668;2022-12-29T00:25:21;5.07;;;2.40;;
19651;SDS011;9974;52.146;14.668;2022-12-29T00:28:08;5.82;;;2.40;;
19651;SDS011;9974;52.146;14.668;2022-12-29T00:30:58;5.07;;;2.60;;
19651;SDS011;9974;52.146;14.668;2022-12-29T00:33:43;6.33;;;2.77;;
19651;SDS011;9974;52.146;14.668;2022-12-29T00:36:28;7.83;;;2.00;;
19651;SDS011;9974;52.146;14.668;2022-12-29T00:39:04;6.97;;;2.57;;
19651;SDS011;9974;52.146;14.668;2022-12-29T00:41:54;4.57;;;2.10;;
19651;SDS011;9974;52.146;14.668;2022-12-29T00:44:38;4.53;;;2.30;;
19651;SDS011;9974;52.146;14.668;2022-12-29T00:47:03;5.10;;;2.40;;
19651;SDS011;9974;52.146;14.668;2022-12-29T00:49:30;4.93;;;2.63;;
19651;SDS011;9974;52.146;14.668;2022-12-29T00:52:03;4.60;;;2.57;;
19651;SDS011;9974;52.146;14.668;2022-12-29T00:54:34;3.93;;;2.30;;
19651;SDS011;9974;52.146;14.668;2022-12-29T00:57:04;4.80;;;2.63;;
19651;SDS011;9974;52.146;14.668;2022-12-29T00:59:31;4.73;;;2.53;;
19651;SDS011;9974;52.146;14.668;2022-12-29T01:01:59;6.75;;;2.78;;
19651;SDS011;9974;52.146;14.668;2022-12-29T01:04:25;4.70;;;2.67;;
19651;SDS011;9974;52.146;14.668;2022-12-29T01:06:51;5.80;;;2.73;;
19651;SDS011;9974;52.146;14.668;2022-12-29T01:09:18;5.53;;;2.40;;
19651;SDS011;9974;52.146;14.668;2022-12-29T01:12:04;4.73;;;2.53;;
19651;SDS011;9974;52.146;14.668;2022-12-29T01:14:30;4.90;;;2.67;;
19651;SDS011;9974;52.146;14.668;2022-12-29T01:16:56;4.32;;;2.30;;
19651;SDS011;9974;52.146;14.668;2022-12-29T01:19:22;6.68;;;2.97;;
19651;SDS011;9974;52.146;14.668;2022-12-29T01:21:49;3.22;;;2.35;;
19651;SDS011;9974;52.146;14.668;2022-12-29T01:24:16;3.07;;;2.03;;
19651;SDS011;9974;52.146;14.668;2022-12-29T01:26:43;6.32;;;2.67;;
19651;SDS011;9974;52.146;14.668;2022-12-29T01:29:09;5.63;;;2.20;;
19651;SDS011;9974;52.146;14.668;2022-12-29T01:31:36;7.13;;;2.53;;
19651;SDS011;9974;52.146;14.668;2022-12-29T01:34:02;3.47;;;2.33;;
19651;SDS011;9974;52.146;14.668;2022-12-29T01:36:28;6.10;;;2.13;;
19651;SDS011;9974;52.146;14.668;2022-12-29T01:38:55;5.00;;;2.10;;
19651;SDS011;9974;52.146;14.668;2022-12-29T01:41:21;5.40;;;2.90;;
19651;SDS011;9974;52.146;14.668;2022-12-29T01:43:54;4.70;;;2.83;;
19651;SDS011;9974;52.146;14.668;2022-12-29T01:49:22;5.73;;;2.23;;
19651;SDS011;9974;52.146;14.668;2022-12-29T01:51:58;8.17;;;2.50;;
19651;SDS011;9974;52.146;14.668;2022-12-29T01:54:30;4.75;;;2.67;;
19651;SDS011;9974;52.146;14.668;2022-12-29T01:57:08;3.60;;;2.20;;
19651;SDS011;9974;52.146;14.668;2022-12-29T02:00:18;4.03;;;2.47;;
19651;SDS011;9974;52.146;14.668;2022-12-29T02:02:38;5.53;;;2.60;;
19651;SDS011;9974;52.146;14.668;2022-12-29T02:05:11;4.93;;;2.53;;
19651;SDS011;9974;52.146;14.668;2022-12-29T02:07:48;5.60;;;2.55;;
19651;SDS011;9974;52.146;14.668;2022-12-29T02:10:17;4.95;;;2.40;;
19651;SDS011;9974;52.146;14.668;2022-12-29T02:12:46;3.73;;;2.23;;
19651;SDS011;9974;52.146;14.668;2022-12-29T02:15:13;4.93;;;2.38;;
19651;SDS011;9974;52.146;14.668;2022-12-29T02:20:37;4.25;;;2.30;;
19651;SDS011;9974;52.146;14.668;2022-12-29T02:26:48;6.00;;;2.13;;
19651;SDS011;9974;52.146;14.668;2022-12-29T02:32:13;4.43;;;2.00;;
19651;SDS011;9974;52.146;14.668;2022-12-29T02:37:37;4.75;;;2.28;;
19651;SDS011;9974;52.146;14.668;2022-12-29T02:43:40;3.47;;;1.90;;
19651;SDS011;9974;52.146;14.668;2022-12-29T02:46:18;3.75;;;1.90;;
19651;SDS011;9974;52.146;14.668;2022-12-29T02:49:13;3.40;;;1.92;;
19651;SDS011;9974;52.146;14.668;2022-12-29T02:51:50;3.45;;;1.90;;
19651;SDS011;9974;52.146;14.668;2022-12-29T02:54:32;5.57;;;2.08;;
19651;SDS011;9974;52.146;14.668;2022-12-29T02:57:11;3.80;;;1.73;;
19651;SDS011;9974;52.146;14.668;2022-12-29T03:02:39;3.50;;;1.60;;
19651;SDS011;9974;52.146;14.668;2022-12-29T03:08:26;3.22;;;1.70;;
19651;SDS011;9974;52.146;14.668;2022-12-29T03:11:21;3.92;;;1.85;;
19651;SDS011;9974;52.146;14.668;2022-12-29T03:14:18;3.17;;;1.88;;
19651;SDS011;9974;52.146;14.668;2022-12-29T03:17:17;4.00;;;1.85;;
19651;SDS011;9974;52.146;14.668;2022-12-29T03:20:06;2.90;;;1.60;;
19651;SDS011;9974;52.146;14.668;2022-12-29T03:22:36;5.00;;;2.17;;
19651;SDS011;9974;52.146;14.668;2022-12-29T03:25:14;4.43;;;1.60;;
19651;SDS011;9974;52.146;14.668;2022-12-29T03:27:55;3.08;;;1.63;;
19651;SDS011;9974;52.146;14.668;2022-12-29T03:30:26;3.88;;;1.90;;
19651;SDS011;9974;52.146;14.668;2022-12-29T03:32:55;3.63;;;1.88;;
19651;SDS011;9974;52.146;14.668;2022-12-29T03:35:25;1.98;;;1.50;;
19651;SDS011;9974;52.146;14.668;2022-12-29T03:38:05;1.65;;;1.17;;
19651;SDS011;9974;52.146;14.668;2022-12-29T03:40:48;4.22;;;1.58;;
19651;SDS011;9974;52.146;14.668;2022-12-29T03:43:18;4.28;;;1.67;;
19651;SDS011;9974;52.146;14.668;2022-12-29T03:45:44;3.67;;;1.30;;
19651;SDS011;9974;52.146;14.668;2022-12-29T03:48:10;4.85;;;1.77;;
19651;SDS011;9974;52.146;14.668;2022-12-29T03:50:36;1.48;;;1.20;;
19651;SDS011;9974;52.146;14.668;2022-12-29T03:53:02;4.68;;;1.92;;
19651;SDS011;9974;52.146;14.668;2022-12-29T03:55:28;5.60;;;1.40;;
19651;SDS011;9974;52.146;14.668;2022-12-29T03:57:54;2.75;;;1.67;;
19651;SDS011;9974;52.146;14.668;2022-12-29T04:00:20;3.63;;;1.60;;
19651;SDS011;9974;52.146;14.668;2022-12-29T04:02:46;4.65;;;1.65;;
19651;SDS011;9974;52.146;14.668;2022-12-29T04:05:12;3.58;;;1.58;;
19651;SDS011;9974;52.146;14.668;2022-12-29T04:07:38;3.00;;;1.52;;
19651;SDS011;9974;52.146;14.668;2022-12-29T04:10:04;2.22;;;1.38;;
19651;SDS011;9974;52.146;14.668;2022-12-29T04:12:30;2.05;;;1.13;;
19651;SDS011;9974;52.146;14.668;2022-12-29T04:14:55;2.65;;;1.38;;
19651;SDS011;9974;52.146;14.668;2022-12-29T04:17:21;3.42;;;1.42;;
19651;SDS011;9974;52.146;14.668;2022-12-29T04:19:47;6.03;;;1.90;;
19651;SDS011;9974;52.146;14.668;2022-12-29T04:22:13;2.88;;;1.60;;
19651;SDS011;9974;52.146;14.668;2022-12-29T04:24:39;3.42;;;1.40;;
19651;SDS011;9974;52.146;14.668;2022-12-29T04:27:05;3.15;;;1.50;;
19651;SDS011;9974;52.146;14.668;2022-12-29T04:29:31;6.13;;;1.70;;
19651;SDS011;9974;52.146;14.668;2022-12-29T04:31:56;4.00;;;1.30;;
19651;SDS011;9974;52.146;14.668;2022-12-29T04:34:22;2.90;;;1.48;;
19651;SDS011;9974;52.146;14.668;2022-12-29T04:36:49;2.30;;;1.52;;
19651;SDS011;9974;52.146;14.668;2022-12-29T04:39:14;5.50;;;2.13;;
19651;SDS011;9974;52.146;14.668;2022-12-29T04:41:40;2.55;;;1.20;;
19651;SDS011;9974;52.146;14.668;2022-12-29T04:44:06;7.07;;;1.50;;
19651;SDS011;9974;52.146;14.668;2022-12-29T04:46:32;3.78;;;1.25;;
19651;SDS011;9974;52.146;14.668;2022-12-29T04:48:58;1.67;;;0.90;;
19651;SDS011;9974;52.146;14.668;2022-12-29T04:51:29;3.10;;;1.50;;
19651;SDS011;9974;52.146;14.668;2022-12-29T04:53:55;2.35;;;1.30;;
19651;SDS011;9974;52.146;14.668;2022-12-29T04:56:21;3.92;;;1.60;;
19651;SDS011;9974;52.146;14.668;2022-12-29T04:58:47;2.85;;;1.60;;
19651;SDS011;9974;52.146;14.668;2022-12-29T05:01:13;1.85;;;1.15;;
19651;SDS011;9974;52.146;14.668;2022-12-29T05:03:39;5.30;;;1.60;;
19651;SDS011;9974;52.146;14.668;2022-12-29T05:06:05;2.38;;;1.30;;
19651;SDS011;9974;52.146;14.668;2022-12-29T05:08:31;3.05;;;1.50;;
19651;SDS011;9974;52.146;14.668;2022-12-29T05:10:57;2.92;;;1.60;;
19651;SDS011;9974;52.146;14.668;2022-12-29T05:13:23;5.35;;;2.00;;
19651;SDS011;9974;52.146;14.668;2022-12-29T05:15:50;3.50;;;1.55;;
19651;SDS011;9974;52.146;14.668;2022-12-29T05:18:17;5.18;;;1.58;;
19651;SDS011;9974;52.146;14.668;2022-12-29T05:20:44;2.95;;;1.52;;
19651;SDS011;9974;52.146;14.668;2022-12-29T05:23:11;3.88;;;1.63;;
19651;SDS011;9974;52.146;14.668;2022-12-29T05:25:37;1.85;;;1.30;;
19651;SDS011;9974;52.146;14.668;2022-12-29T05:28:03;3.05;;;1.20;;
19651;SDS011;9974;52.146;14.668;2022-12-29T05:30:29;5.40;;;1.85;;
19651;SDS011;9974;52.146;14.668;2022-12-29T05:32:55;2.45;;;1.17;;
19651;SDS011;9974;52.146;14.668;2022-12-29T05:35:21;3.80;;;1.60;;
19651;SDS011;9974;52.146;14.668;2022-12-29T05:37:47;5.03;;;1.38;;
19651;SDS011;9974;52.146;14.668;2022-12-29T05:40:13;3.45;;;1.27;;
19651;SDS011;9974;52.146;14.668;2022-12-29T05:42:39;3.67;;;1.48;;
19651;SDS011;9974;52.146;14.668;2022-12-29T05:45:05;2.75;;;1.40;;
19651;SDS011;9974;52.146;14.668;2022-12-29T05:47:32;2.95;;;1.30;;
19651;SDS011;9974;52.146;14.668;2022-12-29T05:49:59;2.88;;;1.30;;
19651;SDS011;9974;52.146;14.668;2022-12-29T05:52:25;3.17;;;1.40;;
19651;SDS011;9974;52.146;14.668;2022-12-29T05:54:51;3.92;;;1.40;;
19651;SDS011;9974;52.146;14.668;2022-12-29T05:57:17;3.38;;;1.52;;
19651;SDS011;9974;52.146;14.668;2022-12-29T05:59:42;4.20;;;1.40;;
19651;SDS011;9974;52.146;14.668;2022-12-29T06:02:09;3.05;;;1.52;;
19651;SDS011;9974;52.146;14.668;2022-12-29T06:04:34;4.00;;;1.65;;
19651;SDS011;9974;52.146;14.668;2022-12-29T06:07:00;3.53;;;1.23;;
19651;SDS011;9974;52.146;14.668;2022-12-29T06:09:26;2.55;;;1.42;;
19651;SDS011;9974;52.146;14.668;2022-12-29T06:11:52;2.30;;;1.38;;
19651;SDS011;9974;52.146;14.668;2022-12-29T06:14:18;2.25;;;1.48;;
19651;SDS011;9974;52.146;14.668;2022-12-29T06:16:44;3.20;;;1.60;;
19651;SDS011;9974;52.146;14.668;2022-12-29T06:19:10;5.97;;;1.98;;
19651;SDS011;9974;52.146;14.668;2022-12-29T06:21:35;3.17;;;1.80;;
19651;SDS011;9974;52.146;14.668;2022-12-29T06:24:02;4.13;;;1.88;;
19651;SDS011;9974;52.146;14.668;2022-12-29T06:26:29;3.30;;;1.60;;
19651;SDS011;9974;52.146;14.668;2022-12-29T06:28:55;3.30;;;1.73;;
19651;SDS011;9974;52.146;14.668;2022-12-29T06:31:20;3.63;;;1.50;;
19651;SDS011;9974;52.146;14.668;2022-12-29T06:33:46;4.80;;;1.67;;
19651;SDS011;9974;52.146;14.668;2022-12-29T06:36:12;5.53;;;1.70;;
19651;SDS011;9974;52.146;14.668;2022-12-29T06:38:38;4.97;;;2.25;;
19651;SDS011;9974;52.146;14.668;2022-12-29T06:41:04;3.70;;;1.90;;
19651;SDS011;9974;52.146;14.668;2022-12-29T06:43:30;2.65;;;1.50;;
19651;SDS011;9974;52.146;14.668;2022-12-29T06:45:57;3.08;;;1.38;;
19651;SDS011;9974;52.146;14.668;2022-12-29T06:48:23;3.75;;;1.70;;
19651;SDS011;9974;52.146;14.668;2022-12-29T06:50:49;2.55;;;1.58;;
19651;SDS011;9974;52.146;14.668;2022-12-29T06:53:15;3.50;;;1.42;;
19651;SDS011;9974;52.146;14.668;2022-12-29T06:55:41;2.00;;;1.20;;
19651;SDS011;9974;52.146;14.668;2022-12-29T06:58:07;3.90;;;1.77;;
19651;SDS011;9974;52.146;14.668;2022-12-29T07:00:33;3.20;;;1.52;;
19651;SDS011;9974;52.146;14.668;2022-12-29T07:02:59;3.53;;;1.15;;
19651;SDS011;9974;52.146;14.668;2022-12-29T07:05:25;3.10;;;1.23;;
19651;SDS011;9974;52.146;14.668;2022-12-29T07:07:52;4.43;;;1.67;;
19651;SDS011;9974;52.146;14.668;2022-12-29T07:10:19;3.22;;;1.33;;
19651;SDS011;9974;52.146;14.668;2022-12-29T07:12:46;8.80;;;1.33;;
19651;SDS011;9974;52.146;14.668;2022-12-29T07:15:12;2.75;;;1.50;;
19651;SDS011;9974;52.146;14.668;2022-12-29T07:17:38;2.20;;;1.10;;
19651;SDS011;9974;52.146;14.668;2022-12-29T07:20:04;7.63;;;1.70;;
19651;SDS011;9974;52.146;14.668;2022-12-29T07:22:31;2.85;;;1.58;;
19651;SDS011;9974;52.146;14.668;2022-12-29T07:24:57;5.15;;;2.13;;
19651;SDS011;9974;52.146;14.668;2022-12-29T07:27:22;4.32;;;1.17;;
19651;SDS011;9974;52.146;14.668;2022-12-29T07:29:48;2.35;;;1.20;;
19651;SDS011;9974;52.146;14.668;2022-12-29T07:32:14;2.45;;;1.30;;
19651;SDS011;9974;52.146;14.668;2022-12-29T07:34:40;3.83;;;1.67;;
19651;SDS011;9974;52.146;14.668;2022-12-29T07:37:07;2.83;;;1.13;;
19651;SDS011;9974;52.146;14.668;2022-12-29T07:39:33;3.35;;;1.17;;
19651;SDS011;9974;52.146;14.668;2022-12-29T07:41:59;2.92;;;1.23;;
19651;SDS011;9974;52.146;14.668;2022-12-29T07:44:25;7.78;;;2.50;;
19651;SDS011;9974;52.146;14.668;2022-12-29T07:46:51;7.65;;;4.53;;
19651;SDS011;9974;52.146;14.668;2022-12-29T07:49:17;6.25;;;3.72;;
19651;SDS011;9974;52.146;14.668;2022-12-29T07:51:42;5.18;;;3.38;;
19651;SDS011;9974;52.146;14.668;2022-12-29T07:54:08;3.47;;;2.08;;
19651;SDS011;9974;52.146;14.668;2022-12-29T07:56:34;4.25;;;1.63;;
19651;SDS011;9974;52.146;14.668;2022-12-29T07:59:00;4.68;;;2.10;;
19651;SDS011;9974;52.146;14.668;2022-12-29T08:01:26;3.47;;;1.70;;
19651;SDS011;9974;52.146;14.668;2022-12-29T08:03:52;4.20;;;1.67;;
19651;SDS011;9974;52.146;14.668;2022-12-29T08:06:18;2.53;;;1.50;;
19651;SDS011;9974;52.146;14.668;2022-12-29T08:08:44;4.63;;;1.40;;
19651;SDS011;9974;52.146;14.668;2022-12-29T08:11:10;3.65;;;1.38;;
19651;SDS011;9974;52.146;14.668;2022-12-29T08:13:36;5.15;;;2.15;;
19651;SDS011;9974;52.146;14.668;2022-12-29T08:16:02;4.13;;;1.85;;
19651;SDS011;9974;52.146;14.668;2022-12-29T08:18:28;6.28;;;1.52;;
19651;SDS011;9974;52.146;14.668;2022-12-29T08:20:54;6.32;;;1.48;;
19651;SDS011;9974;52.146;14.668;2022-12-29T08:23:20;4.80;;;1.30;;
19651;SDS011;9974;52.146;14.668;2022-12-29T08:25:46;6.47;;;1.35;;
19651;SDS011;9974;52.146;14.668;2022-12-29T08:28:21;3.33;;;1.40;;
19651;SDS011;9974;52.146;14.668;2022-12-29T08:30:47;2.33;;;1.30;;
19651;SDS011;9974;52.146;14.668;2022-12-29T08:33:13;4.00;;;1.58;;
19651;SDS011;9974;52.146;14.668;2022-12-29T08:35:38;3.58;;;1.63;;
19651;SDS011;9974;52.146;14.668;2022-12-29T08:38:04;4.60;;;2.17;;
19651;SDS011;9974;52.146;14.668;2022-12-29T08:40:30;3.92;;;1.90;;
19651;SDS011;9974;52.146;14.668;2022-12-29T08:42:56;2.85;;;1.33;;
19651;SDS011;9974;52.146;14.668;2022-12-29T08:45:22;3.55;;;1.55;;
19651;SDS011;9974;52.146;14.668;2022-12-29T08:47:48;8.70;;;2.25;;
19651;SDS011;9974;52.146;14.668;2022-12-29T08:50:14;3.13;;;1.60;;
19651;SDS011;9974;52.146;14.668;2022-12-29T08:52:40;2.40;;;1.30;;
19651;SDS011;9974;52.146;14.668;2022-12-29T08:55:05;2.67;;;1.40;;
19651;SDS011;9974;52.146;14.668;2022-12-29T08:57:31;4.68;;;1.65;;
19651;SDS011;9974;52.146;14.668;2022-12-29T08:59:57;2.88;;;1.35;;
19651;SDS011;9974;52.146;14.668;2022-12-29T09:02:24;3.38;;;1.70;;
19651;SDS011;9974;52.146;14.668;2022-12-29T09:04:50;5.07;;;1.60;;
19651;SDS011;9974;52.146;14.668;2022-12-29T09:07:16;4.10;;;1.83;;
19651;SDS011;9974;52.146;14.668;2022-12-29T09:09:41;1.17;;;0.95;;
19651;SDS011;9974;52.146;14.668;2022-12-29T09:12:07;1.88;;;1.17;;
19651;SDS011;9974;52.146;14.668;2022-12-29T09:14:33;2.30;;;1.27;;
19651;SDS011;9974;52.146;14.668;2022-12-29T09:16:59;2.13;;;1.20;;
19651;SDS011;9974;52.146;14.668;2022-12-29T09:19:44;4.32;;;1.75;;
19651;SDS011;9974;52.146;14.668;2022-12-29T09:22:10;4.10;;;1.60;;
19651;SDS011;9974;52.146;14.668;2022-12-29T09:24:36;2.40;;;1.20;;
19651;SDS011;9974;52.146;14.668;2022-12-29T09:27:02;2.83;;;1.40;;
19651;SDS011;9974;52.146;14.668;2022-12-29T09:29:28;1.90;;;1.08;;
19651;SDS011;9974;52.146;14.668;2022-12-29T09:31:54;3.25;;;1.45;;
19651;SDS011;9974;52.146;14.668;2022-12-29T09:34:20;2.70;;;1.38;;
19651;SDS011;9974;52.146;14.668;2022-12-29T09:36:46;1.88;;;1.10;;
19651;SDS011;9974;52.146;14.668;2022-12-29T09:39:12;3.38;;;1.70;;
19651;SDS011;9974;52.146;14.668;2022-12-29T09:44:44;4.88;;;1.42;;
19651;SDS011;9974;52.146;14.668;2022-12-29T09:47:21;2.95;;;0.88;;
19651;SDS011;9974;52.146;14.668;2022-12-29T09:49:49;1.80;;;0.98;;
19651;SDS011;9974;52.146;14.668;2022-12-29T09:52:32;2.45;;;1.13;;
19651;SDS011;9974;52.146;14.668;2022-12-29T09:55:19;4.43;;;2.20;;
19651;SDS011;9974;52.146;14.668;2022-12-29T09:57:54;2.50;;;1.08;;
19651;SDS011;9974;52.146;14.668;2022-12-29T10:00:47;1.67;;;0.95;;
19651;SDS011;9974;52.146;14.668;2022-12-29T10:03:47;3.30;;;1.00;;
19651;SDS011;9974;52.146;14.668;2022-12-29T10:11:51;7.30;;;3.15;;
19651;SDS011;9974;52.146;14.668;2022-12-29T10:17:48;7.40;;;2.58;;
19651;SDS011;9974;52.146;14.668;2022-12-29T10:23:26;1.77;;;1.00;;
19651;SDS011;9974;52.146;14.668;2022-12-29T10:26:10;2.22;;;1.20;;
19651;SDS011;9974;52.146;14.668;2022-12-29T10:28:42;3.20;;;0.98;;
19651;SDS011;9974;52.146;14.668;2022-12-29T10:31:17;2.53;;;1.10;;
19651;SDS011;9974;52.146;14.668;2022-12-29T10:33:53;2.95;;;1.35;;
19651;SDS011;9974;52.146;14.668;2022-12-29T10:36:35;1.50;;;0.88;;
19651;SDS011;9974;52.146;14.668;2022-12-29T10:39:14;2.53;;;1.10;;
19651;SDS011;9974;52.146;14.668;2022-12-29T10:42:08;2.25;;;0.77;;
19651;SDS011;9974;52.146;14.668;2022-12-29T10:44:47;1.58;;;1.15;;
19651;SDS011;9974;52.146;14.668;2022-12-29T10:47:15;2.83;;;0.88;;
19651;SDS011;9974;52.146;14.668;2022-12-29T10:49:45;2.60;;;1.02;;
19651;SDS011;9974;52.146;14.668;2022-12-29T10:52:12;2.33;;;1.10;;
19651;SDS011;9974;52.146;14.668;2022-12-29T11:00:19;2.70;;;0.95;;
19651;SDS011;9974;52.146;14.668;2022-12-29T11:06:03;2.78;;;1.17;;
19651;SDS011;9974;52.146;14.668;2022-12-29T11:08:35;4.40;;;1.10;;
19651;SDS011;9974;52.146;14.668;2022-12-29T11:11:07;2.92;;;1.45;;
19651;SDS011;9974;52.146;14.668;2022-12-29T11:13:35;6.80;;;1.35;;
19651;SDS011;9974;52.146;14.668;2022-12-29T11:16:13;1.92;;;0.90;;
19651;SDS011;9974;52.146;14.668;2022-12-29T11:18:40;4.45;;;0.80;;
19651;SDS011;9974;52.146;14.668;2022-12-29T11:21:53;2.20;;;0.80;;
19651;SDS011;9974;52.146;14.668;2022-12-29T11:24:17;2.75;;;0.80;;
19651;SDS011;9974;52.146;14.668;2022-12-29T11:26:53;3.03;;;0.80;;
19651;SDS011;9974;52.146;14.668;2022-12-29T11:29:24;1.58;;;0.88;;
19651;SDS011;9974;52.146;14.668;2022-12-29T11:31:55;1.77;;;0.88;;
19651;SDS011;9974;52.146;14.668;2022-12-29T11:34:25;1.63;;;1.05;;
19651;SDS011;9974;52.146;14.668;2022-12-29T11:39:56;2.63;;;1.02;;
19651;SDS011;9974;52.146;14.668;2022-12-29T11:42:35;3.38;;;0.82;;
19651;SDS011;9974;52.146;14.668;2022-12-29T11:45:03;3.08;;;0.93;;
19651;SDS011;9974;52.146;14.668;2022-12-29T11:47:41;0.80;;;0.80;;
19651;SDS011;9974;52.146;14.668;2022-12-29T11:50:15;1.65;;;1.00;;
19651;SDS011;9974;52.146;14.668;2022-12-29T11:52:48;1.38;;;0.80;;
19651;SDS011;9974;52.146;14.668;2022-12-29T11:55:23;1.95;;;0.85;;
19651;SDS011;9974;52.146;14.668;2022-12-29T11:57:51;4.03;;;1.10;;
19651;SDS011;9974;52.146;14.668;2022-12-29T12:00:20;2.17;;;1.08;;
19651;SDS011;9974;52.146;14.668;2022-12-29T12:03:04;2.47;;;1.05;;
19651;SDS011;9974;52.146;14.668;2022-12-29T12:05:53;1.48;;;0.95;;
19651;SDS011;9974;52.146;14.668;2022-12-29T12:08:31;2.30;;;1.20;;
19651;SDS011;9974;52.146;14.668;2022-12-29T12:11:23;3.30;;;1.10;;
19651;SDS011;9974;52.146;14.668;2022-12-29T12:14:07;4.28;;;1.45;;
19651;SDS011;9974;52.146;14.668;2022-12-29T12:16:46;9.25;;;2.00;;
19651;SDS011;9974;52.146;14.668;2022-12-29T12:22:16;6.30;;;1.90;;
19651;SDS011;9974;52.146;14.668;2022-12-29T12:25:14;5.75;;;1.45;;
19651;SDS011;9974;52.146;14.668;2022-12-29T12:28:10;4.32;;;1.23;;
19651;SDS011;9974;52.146;14.668;2022-12-29T12:30:56;2.50;;;0.80;;
19651;SDS011;9974;52.146;14.668;2022-12-29T12:33:33;1.92;;;1.10;;
19651;SDS011;9974;52.146;14.668;2022-12-29T12:36:16;3.60;;;1.30;;
19651;SDS011;9974;52.146;14.668;2022-12-29T12:41:46;3.25;;;1.45;;
19651;SDS011;9974;52.146;14.668;2022-12-29T12:44:46;3.53;;;0.80;;
19651;SDS011;9974;52.146;14.668;2022-12-29T12:57:01;3.08;;;1.35;;
19651;SDS011;9974;52.146;14.668;2022-12-29T13:00:18;2.55;;;1.10;;
19651;SDS011;9974;52.146;14.668;2022-12-29T13:02:55;1.67;;;0.80;;
19651;SDS011;9974;52.146;14.668;2022-12-29T13:09:02;1.08;;;0.73;;
19651;SDS011;9974;52.146;14.668;2022-12-29T13:11:54;3.38;;;0.90;;
19651;SDS011;9974;52.146;14.668;2022-12-29T13:19:48;2.67;;;0.80;;
19651;SDS011;9974;52.146;14.668;2022-12-29T13:22:32;2.10;;;0.90;;
19651;SDS011;9974;52.146;14.668;2022-12-29T13:30:32;1.75;;;1.08;;
19651;SDS011;9974;52.146;14.668;2022-12-29T13:36:18;1.65;;;0.82;;
19651;SDS011;9974;52.146;14.668;2022-12-29T13:39:02;1.95;;;0.95;;
19651;SDS011;9974;52.146;14.668;2022-12-29T13:41:49;3.05;;;1.00;;
19651;SDS011;9974;52.146;14.668;2022-12-29T13:44:24;1.30;;;0.85;;
19651;SDS011;9974;52.146;14.668;2022-12-29T13:47:25;5.63;;;1.42;;
19651;SDS011;9974;52.146;14.668;2022-12-29T13:49:53;3.97;;;1.45;;
19651;SDS011;9974;52.146;14.668;2022-12-29T13:55:01;1.23;;;0.63;;
19651;SDS011;9974;52.146;14.668;2022-12-29T14:00:53;2.28;;;1.00;;
19651;SDS011;9974;52.146;14.668;2022-12-29T14:06:26;4.68;;;1.02;;
19651;SDS011;9974;52.146;14.668;2022-12-29T14:09:01;3.30;;;1.10;;
19651;SDS011;9974;52.146;14.668;2022-12-29T14:11:32;2.03;;;0.80;;
19651;SDS011;9974;52.146;14.668;2022-12-29T14:14:25;2.40;;;1.10;;
19651;SDS011;9974;52.146;14.668;2022-12-29T14:16:57;2.83;;;1.38;;
19651;SDS011;9974;52.146;14.668;2022-12-29T14:19:36;2.28;;;0.90;;
19651;SDS011;9974;52.146;14.668;2022-12-29T14:22:08;2.90;;;1.23;;
19651;SDS011;9974;52.146;14.668;2022-12-29T14:24:43;1.40;;;1.10;;
19651;SDS011;9974;52.146;14.668;2022-12-29T14:34:49;2.83;;;1.20;;
19651;SDS011;9974;52.146;14.668;2022-12-29T14:37:27;2.72;;;1.02;;
19651;SDS011;9974;52.146;14.668;2022-12-29T14:42:42;2.13;;;1.15;;
19651;SDS011;9974;52.146;14.668;2022-12-29T14:47:42;1.92;;;1.08;;
19651;SDS011;9974;52.146;14.668;2022-12-29T14:55:30;2.35;;;1.00;;
19651;SDS011;9974;52.146;14.668;2022-12-29T14:58:26;1.95;;;1.27;;
19651;SDS011;9974;52.146;14.668;2022-12-29T15:00:57;2.80;;;1.02;;
19651;SDS011;9974;52.146;14.668;2022-12-29T15:05:55;4.82;;;1.83;;
19651;SDS011;9974;52.146;14.668;2022-12-29T15:08:24;2.75;;;1.20;;
19651;SDS011;9974;52.146;14.668;2022-12-29T15:11:01;2.95;;;1.20;;
19651;SDS011;9974;52.146;14.668;2022-12-29T15:13:43;2.40;;;1.00;;
19651;SDS011;9974;52.146;14.668;2022-12-29T15:16:24;3.58;;;1.20;;
19651;SDS011;9974;52.146;14.668;2022-12-29T15:18:54;3.83;;;1.75;;
19651;SDS011;9974;52.146;14.668;2022-12-29T15:21:22;2.17;;;1.13;;
19651;SDS011;9974;52.146;14.668;2022-12-29T15:23:54;6.15;;;1.55;;
19651;SDS011;9974;52.146;14.668;2022-12-29T15:26:20;3.05;;;1.20;;
19651;SDS011;9974;52.146;14.668;2022-12-29T15:28:50;2.25;;;1.05;;
19651;SDS011;9974;52.146;14.668;2022-12-29T15:31:21;3.28;;;1.65;;
19651;SDS011;9974;52.146;14.668;2022-12-29T15:33:50;2.45;;;1.35;;
19651;SDS011;9974;52.146;14.668;2022-12-29T15:36:19;3.80;;;1.42;;
19651;SDS011;9974;52.146;14.668;2022-12-29T15:38:49;3.20;;;1.80;;
19651;SDS011;9974;52.146;14.668;2022-12-29T15:44:35;6.25;;;1.60;;
19651;SDS011;9974;52.146;14.668;2022-12-29T15:47:16;2.80;;;1.50;;
19651;SDS011;9974;52.146;14.668;2022-12-29T15:49:48;2.67;;;1.40;;
19651;SDS011;9974;52.146;14.668;2022-12-29T15:52:17;3.15;;;1.25;;
19651;SDS011;9974;52.146;14.668;2022-12-29T15:54:48;2.72;;;1.48;;
19651;SDS011;9974;52.146;14.668;2022-12-29T15:57:24;2.85;;;1.60;;
19651;SDS011;9974;52.146;14.668;2022-12-29T15:59:52;3.85;;;1.30;;
19651;SDS011;9974;52.146;14.668;2022-12-29T16:02:19;2.75;;;1.80;;
19651;SDS011;9974;52.146;14.668;2022-12-29T16:04:47;1.60;;;0.98;;
19651;SDS011;9974;52.146;14.668;2022-12-29T16:07:30;5.78;;;1.45;;
19651;SDS011;9974;52.146;14.668;2022-12-29T16:09:59;2.47;;;1.63;;
19651;SDS011;9974;52.146;14.668;2022-12-29T16:12:31;3.50;;;1.48;;
19651;SDS011;9974;52.146;14.668;2022-12-29T16:15:01;4.28;;;1.50;;
19651;SDS011;9974;52.146;14.668;2022-12-29T16:17:33;3.75;;;0.98;;
19651;SDS011;9974;52.146;14.668;2022-12-29T16:20:17;5.40;;;1.98;;
19651;SDS011;9974;52.146;14.668;2022-12-29T16:22:52;3.70;;;1.42;;
19651;SDS011;9974;52.146;14.668;2022-12-29T16:25:22;3.65;;;1.63;;
19651;SDS011;9974;52.146;14.668;2022-12-29T16:27:53;3.40;;;1.40;;
19651;SDS011;9974;52.146;14.668;2022-12-29T16:32:49;2.85;;;1.48;;
19651;SDS011;9974;52.146;14.668;2022-12-29T16:38:13;2.92;;;1.40;;
19651;SDS011;9974;52.146;14.668;2022-12-29T16:40:56;1.52;;;0.98;;
19651;SDS011;9974;52.146;14.668;2022-12-29T16:43:30;4.78;;;1.50;;
19651;SDS011;9974;52.146;14.668;2022-12-29T16:48:25;2.78;;;1.40;;
19651;SDS011;9974;52.146;14.668;2022-12-29T16:51:01;3.55;;;1.27;;
19651;SDS011;9974;52.146;14.668;2022-12-29T16:53:34;1.38;;;1.00;;
19651;SDS011;9974;52.146;14.668;2022-12-29T16:56:08;3.33;;;1.55;;
19651;SDS011;9974;52.146;14.668;2022-12-29T16:58:49;1.85;;;1.10;;
19651;SDS011;9974;52.146;14.668;2022-12-29T17:01:20;1.92;;;1.02;;
19651;SDS011;9974;52.146;14.668;2022-12-29T17:03:48;5.57;;;1.05;;
19651;SDS011;9974;52.146;14.668;2022-12-29T17:06:19;2.92;;;1.20;;
19651;SDS011;9974;52.146;14.668;2022-12-29T17:08:47;3.22;;;1.20;;
19651;SDS011;9974;52.146;14.668;2022-12-29T17:11:21;1.50;;;1.10;;
19651;SDS011;9974;52.146;14.668;2022-12-29T17:14:35;2.30;;;0.90;;
19651;SDS011;9974;52.146;14.668;2022-12-29T17:17:04;2.63;;;1.02;;
19651;SDS011;9974;52.146;14.668;2022-12-29T17:19:44;4.18;;;1.33;;